createdAt,value
2018-09-19T00:02:27.352Z,99.90
2018-09-19T00:04:55.561Z,99.90
2018-09-19T00:07:23.776Z,99.90
2018-09-19T00:09:51.944Z,99.90
2018-09-19T00:12:20.138Z,99.90
2018-09-19T00:14:48.335Z,99.90
2018-09-19T00:17:16.607Z,99.90
2018-09-19T00:19:44.874Z,99.90
2018-09-19T00:22:13.076Z,99.90
2018-09-19T00:24:41.292Z,99.90
2018-09-19T00:27:09.496Z,99.90
2018-09-19T00:29:37.989Z,99.90
2018-09-19T00:32:06.181Z,99.90
2018-09-19T00:34:34.423Z,99.90
2018-09-19T00:37:02.626Z,99.90
2018-09-19T00:39:30.837Z,99.90
2018-09-19T00:41:59.032Z,99.90
2018-09-19T00:44:27.212Z,99.90
2018-09-19T00:46:55.408Z,99.90
2018-09-19T00:49:23.595Z,99.90
2018-09-19T00:51:51.826Z,99.90
2018-09-19T00:54:20.018Z,99.90
2018-09-19T00:56:52.244Z,99.90
2018-09-19T00:59:20.849Z,99.90
2018-09-19T01:01:49.064Z,99.90
2018-09-19T01:04:17.246Z,99.90
2018-09-19T01:06:45.446Z,99.90
2018-09-19T01:09:13.645Z,99.90
2018-09-19T01:11:41.838Z,99.90
2018-09-19T01:14:11.014Z,99.90
2018-09-19T01:16:39.210Z,99.90
2018-09-19T01:19:07.413Z,99.90
2018-09-19T01:21:35.644Z,99.90
2018-09-19T01:24:03.835Z,99.90
2018-09-19T01:26:32.039Z,99.90
2018-09-19T01:29:00.240Z,99.90
2018-09-19T01:31:28.488Z,99.90
2018-09-19T01:33:56.637Z,99.90
2018-09-19T01:36:25.348Z,99.90
2018-09-19T01:38:53.566Z,99.90
2018-09-19T01:41:21.793Z,99.90
2018-09-19T01:43:49.977Z,99.90
2018-09-19T01:46:18.203Z,99.90
2018-09-19T01:48:46.421Z,99.90
2018-09-19T01:51:14.612Z,99.90
2018-09-19T01:53:42.802Z,99.90
2018-09-19T01:56:11.024Z,99.90
2018-09-19T01:58:39.211Z,99.90
2018-09-19T02:01:07.403Z,99.90
2018-09-19T02:03:35.804Z,99.90
2018-09-19T02:06:04.005Z,99.90
2018-09-19T02:08:32.203Z,99.90
2018-09-19T02:11:00.407Z,99.90
2018-09-19T02:13:28.631Z,99.90
2018-09-19T02:15:56.845Z,99.90
2018-09-19T02:18:25.178Z,99.90
2018-09-19T02:20:53.365Z,99.90
2018-09-19T02:23:21.696Z,99.90
2018-09-19T02:25:54.398Z,99.90
2018-09-19T02:28:23.333Z,99.90
2018-09-19T02:30:51.696Z,99.90
2018-09-19T02:33:25.468Z,99.90
2018-09-19T02:35:53.749Z,99.90
2018-09-19T02:38:22.327Z,99.90
2018-09-19T02:40:50.553Z,99.90
2018-09-19T02:43:18.744Z,99.90
2018-09-19T02:45:46.967Z,99.90
2018-09-19T02:48:15.188Z,99.90
2018-09-19T02:50:43.461Z,99.90
2018-09-19T02:53:11.657Z,99.90
2018-09-19T02:55:39.895Z,99.90
2018-09-19T02:58:08.088Z,99.90
2018-09-19T03:00:36.319Z,99.90
2018-09-19T03:03:05.128Z,99.90
2018-09-19T03:05:34.294Z,99.90
2018-09-19T03:08:02.484Z,99.90
2018-09-19T03:10:31.181Z,99.90
2018-09-19T03:12:59.598Z,99.90
2018-09-19T03:15:27.817Z,99.90
2018-09-19T03:17:56.013Z,99.90
2018-09-19T03:20:24.219Z,99.90
2018-09-19T03:22:52.452Z,99.90
2018-09-19T03:25:20.682Z,99.90
2018-09-19T03:27:48.922Z,99.90
2018-09-19T03:30:17.155Z,99.90
2018-09-19T03:32:45.373Z,99.90
2018-09-19T03:35:13.636Z,99.90
2018-09-19T03:37:41.797Z,99.90
2018-09-19T03:40:09.992Z,99.90
2018-09-19T03:42:38.270Z,99.90
2018-09-19T03:45:09.273Z,99.90
2018-09-19T03:47:37.474Z,99.90
2018-09-19T03:50:05.768Z,99.90
2018-09-19T03:52:34.077Z,99.90
2018-09-19T03:55:02.293Z,99.90
2018-09-19T03:57:30.588Z,99.90
2018-09-19T03:59:58.804Z,99.90
2018-09-19T04:02:27.108Z,99.90
2018-09-19T04:04:55.346Z,99.90
2018-09-19T04:07:23.589Z,99.90
2018-09-19T04:09:51.785Z,99.90
2018-09-19T04:12:20.064Z,99.90
2018-09-19T04:14:48.258Z,99.90
2018-09-19T04:17:16.463Z,99.90
2018-09-19T04:19:44.664Z,99.90
2018-09-19T04:22:12.921Z,99.90
2018-09-19T04:24:41.114Z,99.90
2018-09-19T04:27:09.396Z,99.90
2018-09-19T04:29:37.612Z,99.90
2018-09-19T04:32:05.815Z,99.90
2018-09-19T04:34:34.020Z,99.90
2018-09-19T04:37:02.236Z,99.90
2018-09-19T04:39:30.441Z,99.90
2018-09-19T04:44:33.227Z,99.90
2018-09-19T04:47:01.434Z,99.90
2018-09-19T04:49:29.630Z,99.90
2018-09-19T04:51:57.870Z,99.90
2018-09-19T04:54:26.081Z,99.90
2018-09-19T04:56:54.280Z,99.90
2018-09-19T04:59:22.486Z,99.90
2018-09-19T05:01:50.705Z,99.90
2018-09-19T05:04:18.906Z,99.90
2018-09-19T05:06:47.139Z,99.90
2018-09-19T05:09:15.342Z,99.90
2018-09-19T05:11:43.621Z,99.90
2018-09-19T05:14:11.844Z,99.90
2018-09-19T05:16:40.072Z,99.90
2018-09-19T05:19:08.280Z,99.90
2018-09-19T05:21:36.508Z,99.90
2018-09-19T05:24:04.709Z,99.90
2018-09-19T05:26:32.940Z,99.90
2018-09-19T05:29:01.128Z,99.90
2018-09-19T05:31:29.404Z,99.90
2018-09-19T05:33:57.555Z,99.90
2018-09-19T05:36:25.766Z,99.90
2018-09-19T05:38:53.992Z,99.90
2018-09-19T05:41:22.197Z,99.90
2018-09-19T05:43:50.421Z,99.90
2018-09-19T05:46:18.663Z,99.90
2018-09-19T05:48:46.849Z,99.90
2018-09-19T05:51:15.049Z,99.90
2018-09-19T05:53:43.269Z,99.90
2018-09-19T05:56:12.105Z,99.90
2018-09-19T05:58:40.312Z,99.90
2018-09-19T06:01:08.553Z,99.90
2018-09-19T06:03:36.765Z,99.90
2018-09-19T06:06:05.124Z,99.90
2018-09-19T06:08:33.333Z,99.90
2018-09-19T06:11:01.597Z,99.90
2018-09-19T06:13:29.845Z,99.90
2018-09-19T06:15:58.048Z,99.90
2018-09-19T06:18:26.537Z,99.90
2018-09-19T06:20:54.735Z,99.90
2018-09-19T06:23:22.963Z,99.90
2018-09-19T06:29:22.649Z,99.90
2018-09-19T06:31:50.868Z,99.90
2018-09-19T06:34:19.077Z,99.90
2018-09-19T06:36:47.360Z,99.90
2018-09-19T06:39:15.648Z,99.90
2018-09-19T06:41:44.029Z,99.90
2018-09-19T06:44:12.239Z,99.90
2018-09-19T06:46:40.677Z,99.90
2018-09-19T06:49:08.876Z,99.90
2018-09-19T06:51:37.081Z,99.90
2018-09-19T06:54:05.274Z,99.90
2018-09-19T06:56:33.485Z,99.90
2018-09-19T06:59:01.702Z,99.90
2018-09-19T07:01:29.886Z,99.90
2018-09-19T07:03:58.094Z,99.90
2018-09-19T07:06:26.351Z,99.90
2018-09-19T07:08:54.613Z,99.90
2018-09-19T07:11:22.801Z,99.90
2018-09-19T07:13:51.253Z,99.90
2018-09-19T07:16:19.443Z,99.90
2018-09-19T07:18:47.695Z,99.90
2018-09-19T07:21:15.846Z,99.90
2018-09-19T07:23:44.057Z,99.90
2018-09-19T07:26:12.252Z,99.90
2018-09-19T07:28:40.455Z,99.90
2018-09-19T07:31:08.713Z,99.90
2018-09-19T07:33:36.896Z,99.90
2018-09-19T07:36:05.123Z,99.90
2018-09-19T07:38:33.343Z,99.90
2018-09-19T07:41:01.565Z,99.90
2018-09-19T07:43:29.825Z,99.90
2018-09-19T07:45:58.052Z,99.90
2018-09-19T07:48:26.295Z,99.90
2018-09-19T07:50:54.549Z,99.90
2018-09-19T07:53:22.768Z,99.90
2018-09-19T07:55:51.008Z,99.90
2018-09-19T07:58:19.216Z,99.90
2018-09-19T08:00:47.445Z,99.90
2018-09-19T08:03:17.837Z,99.90
2018-09-19T08:05:46.043Z,99.90
2018-09-19T08:08:14.312Z,99.90
2018-09-19T08:10:42.520Z,99.90
2018-09-19T08:13:11.565Z,99.90
2018-09-19T08:15:39.773Z,99.90
2018-09-19T08:18:07.981Z,99.90
2018-09-19T08:20:36.184Z,99.90
2018-09-19T08:23:04.384Z,99.90
2018-09-19T08:25:32.584Z,99.90
2018-09-19T08:28:00.990Z,99.90
2018-09-19T08:30:29.280Z,99.90
2018-09-19T08:32:57.442Z,99.90
2018-09-19T08:35:25.664Z,99.90
2018-09-19T08:37:53.876Z,99.90
2018-09-19T08:40:22.061Z,99.90
2018-09-19T08:42:50.308Z,99.90
2018-09-19T08:45:18.637Z,99.90
2018-09-19T08:47:46.839Z,99.90
2018-09-19T08:50:15.130Z,99.90
2018-09-19T08:52:43.707Z,99.90
2018-09-19T08:55:11.892Z,99.90
2018-09-19T08:57:40.139Z,99.90
2018-09-19T09:00:09.060Z,99.90
2018-09-19T09:02:37.279Z,99.90
2018-09-19T09:05:05.570Z,99.90
2018-09-19T09:07:33.788Z,99.90
2018-09-19T09:10:02.145Z,99.90
2018-09-19T09:12:30.402Z,99.90
2018-09-19T09:14:58.562Z,99.90
2018-09-19T09:17:26.759Z,99.90
2018-09-19T09:19:55.140Z,99.90
2018-09-19T09:22:23.300Z,99.90
2018-09-19T09:24:51.517Z,99.90
2018-09-19T09:27:19.842Z,99.90
2018-09-19T09:29:47.984Z,99.90
2018-09-19T09:34:44.505Z,99.90
2018-09-19T09:37:12.696Z,99.90
2018-09-19T09:39:40.916Z,99.90
2018-09-19T09:42:09.155Z,99.90
2018-09-19T09:44:37.324Z,99.90
2018-09-19T09:47:05.925Z,99.90
2018-09-19T09:49:34.175Z,99.90
2018-09-19T09:52:02.364Z,99.90
2018-09-19T09:54:30.568Z,99.90
2018-09-19T09:56:58.794Z,99.90
2018-09-19T09:59:27.024Z,99.90
2018-09-19T10:01:55.217Z,99.90
2018-09-19T10:04:23.430Z,99.90
2018-09-19T10:06:51.669Z,99.90
2018-09-19T10:09:19.974Z,99.90
2018-09-19T10:11:48.196Z,99.90
2018-09-19T10:14:16.404Z,99.90
2018-09-19T10:16:44.641Z,99.90
2018-09-19T10:19:12.897Z,99.90
2018-09-19T10:21:41.087Z,99.90
2018-09-19T10:24:09.289Z,99.90
2018-09-19T10:26:37.499Z,99.90
2018-09-19T10:29:05.717Z,99.90
2018-09-19T10:31:33.914Z,99.90
2018-09-19T10:34:02.129Z,99.90
2018-09-19T10:36:30.340Z,99.90
2018-09-19T10:38:58.541Z,99.90
2018-09-19T10:41:26.732Z,99.90
2018-09-19T10:43:54.944Z,99.90
2018-09-19T10:46:23.200Z,99.90
2018-09-19T10:48:51.440Z,99.90
2018-09-19T10:51:19.630Z,99.90
2018-09-19T10:53:47.810Z,99.90
2018-09-19T10:56:16.017Z,97.10
2018-09-19T10:58:44.211Z,95.30
2018-09-19T11:01:12.424Z,95.30
2018-09-19T11:03:40.629Z,95.10
2018-09-19T11:06:08.825Z,94.70
2018-09-19T11:08:37.073Z,94.30
2018-09-19T11:11:05.296Z,91.90
2018-09-19T11:13:33.479Z,92.00
2018-09-19T11:16:01.669Z,92.60
2018-09-19T11:18:29.856Z,90.60
2018-09-19T11:20:58.051Z,87.70
2018-09-19T11:23:26.256Z,90.20
2018-09-19T11:25:54.450Z,89.50
2018-09-19T11:28:22.658Z,88.80
2018-09-19T11:30:50.838Z,90.10
2018-09-19T11:33:19.043Z,87.90
2018-09-19T11:35:47.268Z,90.30
2018-09-19T11:38:15.473Z,89.50
2018-09-19T11:40:43.696Z,94.00
2018-09-19T11:43:11.896Z,96.30
2018-09-19T11:45:40.124Z,97.90
2018-09-19T11:48:08.324Z,97.80
2018-09-19T11:50:36.516Z,99.40
2018-09-19T11:53:08.721Z,99.90
2018-09-19T11:55:36.940Z,99.90
2018-09-19T11:58:05.162Z,99.90
2018-09-19T12:00:33.365Z,99.90
2018-09-19T12:03:01.564Z,99.90
2018-09-19T12:05:29.757Z,99.90
2018-09-19T12:07:57.959Z,99.90
2018-09-19T12:10:26.159Z,99.90
2018-09-19T12:12:54.385Z,99.90
2018-09-19T12:15:22.557Z,99.90
2018-09-19T12:17:50.776Z,99.90
2018-09-19T12:20:18.963Z,99.90
2018-09-19T12:22:47.253Z,99.90
2018-09-19T12:25:15.432Z,99.90
2018-09-19T12:27:43.631Z,99.90
2018-09-19T12:30:11.840Z,99.90
2018-09-19T12:32:40.076Z,99.90
2018-09-19T12:35:08.284Z,99.90
2018-09-19T12:37:36.481Z,99.90
2018-09-19T12:40:05.248Z,99.90
2018-09-19T12:42:33.450Z,99.90
2018-09-19T12:45:01.652Z,99.90
2018-09-19T12:47:29.893Z,99.90
2018-09-19T12:49:58.080Z,99.90
2018-09-19T12:52:26.288Z,99.90
2018-09-19T12:54:54.486Z,99.90
2018-09-19T12:57:22.713Z,99.90
2018-09-19T12:59:51.017Z,99.90
2018-09-19T13:02:20.180Z,99.90
2018-09-19T13:04:48.383Z,99.90
2018-09-19T13:07:16.581Z,99.90
2018-09-19T13:09:44.788Z,99.90
2018-09-19T13:12:13.011Z,99.90
2018-09-19T13:14:41.358Z,99.90
2018-09-19T13:17:09.594Z,99.30
2018-09-19T13:19:37.809Z,99.30
2018-09-19T13:22:06.002Z,99.10
2018-09-19T13:24:34.192Z,98.30
2018-09-19T13:27:02.371Z,99.00
2018-09-19T13:29:30.571Z,98.40
2018-09-19T13:31:58.776Z,97.30
2018-09-19T13:34:26.969Z,97.40
2018-09-19T13:36:55.229Z,97.60
2018-09-19T13:39:23.437Z,97.00
2018-09-19T13:41:51.609Z,96.50
2018-09-19T13:44:19.797Z,96.50
2018-09-19T13:46:47.993Z,96.50
2018-09-19T13:49:26.244Z,96.80
2018-09-19T13:51:54.514Z,97.10
2018-09-19T13:54:22.711Z,97.00
2018-09-19T13:56:50.911Z,96.80
2018-09-19T13:59:19.173Z,96.90
2018-09-19T14:01:47.376Z,96.60
2018-09-19T14:04:15.631Z,96.80
2018-09-19T14:06:43.781Z,96.20
2018-09-19T14:09:11.989Z,95.90
2018-09-19T14:11:40.214Z,95.60
2018-09-19T14:14:08.376Z,96.00
2018-09-19T14:16:36.591Z,96.30
2018-09-19T14:19:04.832Z,95.00
2018-09-19T14:21:33.024Z,95.60
2018-09-19T14:24:01.213Z,93.90
2018-09-19T14:26:29.424Z,94.40
2018-09-19T14:28:57.641Z,94.60
2018-09-19T14:31:25.840Z,95.00
2018-09-19T14:33:54.037Z,94.80
2018-09-19T14:36:22.245Z,94.40
2018-09-19T14:38:50.433Z,94.70
2018-09-19T14:41:18.669Z,95.10
2018-09-19T14:43:46.848Z,93.80
2018-09-19T14:46:15.077Z,94.30
2018-09-19T14:48:43.575Z,94.30
2018-09-19T14:51:11.742Z,94.10
2018-09-19T14:53:39.946Z,93.70
2018-09-19T14:56:08.200Z,94.00
2018-09-19T14:58:36.428Z,93.50
2018-09-19T15:01:04.761Z,93.60
2018-09-19T15:03:32.951Z,93.60
2018-09-19T15:06:02.261Z,93.80
2018-09-19T15:08:30.478Z,93.70
2018-09-19T15:10:58.717Z,93.70
2018-09-19T15:13:26.916Z,94.50
2018-09-19T15:15:55.264Z,93.70
2018-09-19T15:18:23.912Z,94.20
2018-09-19T15:20:52.124Z,93.50
2018-09-19T15:23:20.325Z,93.80
2018-09-19T15:25:48.521Z,93.90
2018-09-19T15:28:16.728Z,93.90
2018-09-19T15:30:44.934Z,93.30
2018-09-19T15:33:13.167Z,93.80
2018-09-19T15:35:41.377Z,94.10
2018-09-19T15:38:09.635Z,94.40
2018-09-19T15:40:37.816Z,94.20
2018-09-19T15:43:06.153Z,94.80
2018-09-19T15:45:34.360Z,94.90
2018-09-19T15:48:02.552Z,95.00
2018-09-19T15:50:30.757Z,95.00
2018-09-19T15:52:58.942Z,95.20
2018-09-19T15:55:27.162Z,96.30
2018-09-19T15:57:55.392Z,96.10
2018-09-19T16:00:23.525Z,95.80
2018-09-19T16:02:51.726Z,96.20
2018-09-19T16:05:19.909Z,96.20
2018-09-19T16:07:48.120Z,96.70
2018-09-19T16:10:16.301Z,95.90
2018-09-19T16:12:44.496Z,96.50
2018-09-19T16:15:12.698Z,97.00
2018-09-19T16:17:40.970Z,97.80
2018-09-19T16:20:09.173Z,98.40
2018-09-19T16:22:37.396Z,98.40
2018-09-19T16:25:05.604Z,98.60
2018-09-19T16:27:33.810Z,99.20
2018-09-19T16:30:02.017Z,99.90
2018-09-19T16:32:31.330Z,99.90
2018-09-19T16:34:59.528Z,99.90
2018-09-19T16:37:27.742Z,99.90
2018-09-19T16:39:56.349Z,99.90
2018-09-19T16:42:24.681Z,99.90
2018-09-19T16:44:52.946Z,99.90
2018-09-19T16:47:21.148Z,99.90
2018-09-19T16:49:49.672Z,99.90
2018-09-19T16:52:18.281Z,99.90
2018-09-19T16:54:46.624Z,99.90
2018-09-19T16:57:14.877Z,99.90
2018-09-19T16:59:43.277Z,99.90
2018-09-19T17:02:11.449Z,99.90
2018-09-19T17:04:40.299Z,99.90
2018-09-19T17:07:08.514Z,99.90
2018-09-19T17:09:36.740Z,99.90
2018-09-19T17:12:04.973Z,99.90
2018-09-19T17:14:33.244Z,99.90
2018-09-19T17:17:01.489Z,99.90
2018-09-19T17:19:30.362Z,99.90
2018-09-19T17:22:01.401Z,99.90
2018-09-19T17:24:30.900Z,99.90
2018-09-19T17:27:01.044Z,99.90
2018-09-19T17:29:29.655Z,99.90
2018-09-19T17:31:57.873Z,99.90
2018-09-19T17:34:31.300Z,99.90
2018-09-19T17:37:00.720Z,99.90
2018-09-19T17:39:29.025Z,99.90
2018-09-19T17:42:00.049Z,99.90
2018-09-19T17:44:33.490Z,99.90
2018-09-19T17:47:01.733Z,99.90
2018-09-19T17:49:30.316Z,99.90
2018-09-19T17:51:59.354Z,99.90
2018-09-19T17:54:27.743Z,99.90
2018-09-19T17:56:56.201Z,99.90
2018-09-19T17:59:24.847Z,99.90
2018-09-19T18:01:53.876Z,99.90
2018-09-19T18:04:22.319Z,99.90
2018-09-19T18:06:50.768Z,99.90
2018-09-19T18:09:20.281Z,99.90
2018-09-19T18:11:50.012Z,99.90
2018-09-19T18:14:20.266Z,99.90
2018-09-19T18:16:48.782Z,99.90
2018-09-19T18:19:17.092Z,99.90
2018-09-19T18:21:46.003Z,99.90
2018-09-19T18:24:15.504Z,99.90
2018-09-19T18:26:43.854Z,99.90
2018-09-19T18:29:12.410Z,99.90
2018-09-19T18:31:41.617Z,99.90
2018-09-19T18:34:10.524Z,99.90
2018-09-19T18:36:38.867Z,99.90
2018-09-19T18:39:07.266Z,99.90
2018-09-19T18:41:36.990Z,99.90
2018-09-19T18:44:06.529Z,99.90
2018-09-19T18:46:35.687Z,99.90
2018-09-19T18:49:04.264Z,99.90
2018-09-19T18:51:32.531Z,99.90
2018-09-19T18:54:01.141Z,99.90
2018-09-19T18:56:30.273Z,99.90
2018-09-19T18:58:59.345Z,99.90
2018-09-19T19:01:27.571Z,99.90
2018-09-19T19:03:56.131Z,99.90
2018-09-19T19:06:25.173Z,99.90
2018-09-19T19:08:53.388Z,99.90
2018-09-19T19:11:21.624Z,99.90
2018-09-19T19:13:50.276Z,99.90
2018-09-19T19:16:23.692Z,99.90
2018-09-19T19:18:52.195Z,99.90
2018-09-19T19:21:20.764Z,99.90
2018-09-19T19:23:52.981Z,99.90
2018-09-19T19:26:22.995Z,99.90
2018-09-19T19:28:52.565Z,99.90
2018-09-19T19:32:45.276Z,99.90
2018-09-19T19:35:13.509Z,99.90
2018-09-19T19:37:41.933Z,99.90
2018-09-19T19:40:10.692Z,99.90
2018-09-19T19:42:39.694Z,99.90
2018-09-19T19:45:07.941Z,99.90
2018-09-19T19:47:36.320Z,99.90
2018-09-19T19:50:05.117Z,99.90
2018-09-19T19:52:33.337Z,99.90
2018-09-19T19:55:02.821Z,99.90
2018-09-19T19:57:31.209Z,99.90
2018-09-19T19:59:59.417Z,99.90
2018-09-19T20:02:27.681Z,99.90
2018-09-19T20:04:55.885Z,99.90
2018-09-19T20:07:24.099Z,99.90
2018-09-19T20:09:52.322Z,99.90
2018-09-19T20:12:20.528Z,99.90
2018-09-19T20:14:48.840Z,99.90
2018-09-19T20:17:17.052Z,99.90
2018-09-19T20:19:45.960Z,99.90
2018-09-19T20:22:17.404Z,99.90
2018-09-19T20:24:45.637Z,99.90
2018-09-19T20:27:13.900Z,99.90
2018-09-19T20:29:42.129Z,99.90
2018-09-19T20:32:10.320Z,99.90
2018-09-19T20:34:38.547Z,99.90
2018-09-19T20:37:07.199Z,99.90
2018-09-19T20:39:35.397Z,99.90
2018-09-19T20:42:04.482Z,99.90
2018-09-19T20:44:32.689Z,99.90
2018-09-19T20:47:02.546Z,99.90
2018-09-19T20:49:30.716Z,99.90
2018-09-19T20:51:58.922Z,99.90
2018-09-19T20:54:27.228Z,99.90
2018-09-19T20:56:55.428Z,99.90
2018-09-19T20:59:23.617Z,99.90
2018-09-19T21:01:51.828Z,99.90
2018-09-19T21:04:20.051Z,99.90
2018-09-19T21:06:48.292Z,99.90
2018-09-19T21:09:20.316Z,99.90
2018-09-19T21:11:48.578Z,99.90
2018-09-19T21:14:17.186Z,99.90
2018-09-19T21:16:45.392Z,99.90
2018-09-19T21:19:13.616Z,99.90
2018-09-19T21:21:41.822Z,99.90
2018-09-19T21:24:13.949Z,99.90
2018-09-19T21:26:42.217Z,99.90
2018-09-19T21:29:10.457Z,99.90
2018-09-19T21:31:38.675Z,99.90
2018-09-19T21:34:06.906Z,99.90
2018-09-19T21:36:35.098Z,99.90
2018-09-19T21:39:05.241Z,99.90
2018-09-19T21:41:33.436Z,99.90
2018-09-19T21:44:02.935Z,99.90
2018-09-19T21:46:32.406Z,99.90
2018-09-19T21:49:03.294Z,99.90
2018-09-19T21:51:31.510Z,99.90
2018-09-19T21:53:59.717Z,99.90
2018-09-19T21:56:27.936Z,99.90
2018-09-19T21:58:56.156Z,99.90
2018-09-19T22:01:29.761Z,99.90
2018-09-19T22:03:58.112Z,99.90
2018-09-19T22:06:26.317Z,99.90
2018-09-19T22:08:54.608Z,99.90
2018-09-19T22:11:22.828Z,99.90
2018-09-19T22:13:51.423Z,99.90
2018-09-19T22:16:19.653Z,99.90
2018-09-19T22:18:48.965Z,99.90
2018-09-19T22:21:17.355Z,99.90
2018-09-19T22:23:46.507Z,99.90
2018-09-19T22:26:14.724Z,99.90
2018-09-19T22:28:42.924Z,99.90
2018-09-19T22:31:11.178Z,99.90
2018-09-19T22:33:39.373Z,99.90
2018-09-19T22:36:07.581Z,99.90
2018-09-19T22:38:35.804Z,99.90
2018-09-19T22:41:04.005Z,99.90
2018-09-19T22:43:32.224Z,99.90
2018-09-19T22:46:00.430Z,99.90
2018-09-19T22:48:28.620Z,99.90
2018-09-19T22:50:56.830Z,99.90
2018-09-19T22:53:25.046Z,99.90
2018-09-19T22:55:53.496Z,99.90
2018-09-19T22:58:23.549Z,99.90
2018-09-19T23:00:51.761Z,99.90
2018-09-19T23:03:21.473Z,99.90
2018-09-19T23:05:49.668Z,99.90
2018-09-19T23:08:20.783Z,99.90
2018-09-19T23:10:48.985Z,99.90
2018-09-19T23:13:18.988Z,99.90
2018-09-19T23:15:47.617Z,99.90
2018-09-19T23:18:16.889Z,99.90
2018-09-19T23:20:47.907Z,99.90
2018-09-19T23:23:18.433Z,99.90
2018-09-19T23:25:48.386Z,99.90
2018-09-19T23:28:17.620Z,99.90
2018-09-19T23:30:45.807Z,99.90
2018-09-19T23:33:51.410Z,99.90
2018-09-19T23:36:19.759Z,99.90
2018-09-19T23:38:47.968Z,99.90
2018-09-19T23:41:16.156Z,99.90
2018-09-19T23:43:44.361Z,99.90
2018-09-19T23:46:12.569Z,99.90
2018-09-19T23:48:40.780Z,99.90
2018-09-19T23:51:09.025Z,99.90
2018-09-19T23:53:37.233Z,99.90
2018-09-19T23:56:05.438Z,99.90
2018-09-19T23:58:33.636Z,99.90
